sensor_id;sensor_type;location;lat;lon;timestamp;temperature;humidity
27506;DHT22;14939;43.596;1.320;2023-03-04T00:01:16;2.40;99.90
27506;DHT22;14939;43.596;1.320;2023-03-04T00:03:42;2.40;99.90
27506;DHT22;14939;43.596;1.320;2023-03-04T00:06:07;2.50;99.90
27506;DHT22;14939;43.596;1.320;2023-03-04T00:08:33;2.50;99.90
27506;DHT22;14939;43.596;1.320;2023-03-04T00:10:59;2.50;99.90
27506;DHT22;14939;43.596;1.320;2023-03-04T00:13:25;2.50;99.90
27506;DHT22;14939;43.596;1.320;2023-03-04T00:15:51;2.50;99.90
27506;DHT22;14939;43.596;1.320;2023-03-04T00:18:17;2.60;99.90
27506;DHT22;14939;43.596;1.320;2023-03-04T00:20:45;2.70;99.90
27506;DHT22;14939;43.596;1.320;2023-03-04T00:23:10;2.70;99.90
27506;DHT22;14939;43.596;1.320;2023-03-04T00:25:36;2.70;99.90
27506;DHT22;14939;43.596;1.320;2023-03-04T00:28:02;2.70;99.90
27506;DHT22;14939;43.596;1.320;2023-03-04T00:30:27;2.70;99.90
27506;DHT22;14939;43.596;1.320;2023-03-04T00:32:53;2.70;99.90
27506;DHT22;14939;43.596;1.320;2023-03-04T00:35:19;2.70;99.90
27506;DHT22;14939;43.596;1.320;2023-03-04T00:37:44;2.80;99.90
27506;DHT22;14939;43.596;1.320;2023-03-04T00:40:10;2.70;99.90
27506;DHT22;14939;43.596;1.320;2023-03-04T00:42:36;2.80;99.90
27506;DHT22;14939;43.596;1.320;2023-03-04T00:45:02;2.70;99.90
27506;DHT22;14939;43.596;1.320;2023-03-04T00:47:28;2.70;99.90
27506;DHT22;14939;43.596;1.320;2023-03-04T00:49:54;2.70;99.90
27506;DHT22;14939;43.596;1.320;2023-03-04T00:52:19;2.70;99.90
27506;DHT22;14939;43.596;1.320;2023-03-04T00:54:45;2.70;99.90
27506;DHT22;14939;43.596;1.320;2023-03-04T00:57:11;2.70;99.90
27506;DHT22;14939;43.596;1.320;2023-03-04T00:59:36;2.70;99.90
27506;DHT22;14939;43.596;1.320;2023-03-04T01:02:02;2.70;99.90
27506;DHT22;14939;43.596;1.320;2023-03-04T01:04:28;2.70;99.90
27506;DHT22;14939;43.596;1.320;2023-03-04T01:06:53;2.70;99.90
27506;DHT22;14939;43.596;1.320;2023-03-04T01:09:19;2.70;99.90
27506;DHT22;14939;43.596;1.320;2023-03-04T01:11:45;2.80;99.90
27506;DHT22;14939;43.596;1.320;2023-03-04T01:14:10;2.70;99.90
27506;DHT22;14939;43.596;1.320;2023-03-04T01:16:36;2.70;99.90
27506;DHT22;14939;43.596;1.320;2023-03-04T01:19:02;2.70;99.90
27506;DHT22;14939;43.596;1.320;2023-03-04T01:21:27;2.70;99.90
27506;DHT22;14939;43.596;1.320;2023-03-04T01:23:53;2.80;99.90
27506;DHT22;14939;43.596;1.320;2023-03-04T01:26:19;2.80;99.90
27506;DHT22;14939;43.596;1.320;2023-03-04T01:28:44;2.70;99.90
27506;DHT22;14939;43.596;1.320;2023-03-04T01:31:10;2.70;99.90
27506;DHT22;14939;43.596;1.320;2023-03-04T01:33:35;2.70;99.90
27506;DHT22;14939;43.596;1.320;2023-03-04T01:36:01;2.70;99.90
27506;DHT22;14939;43.596;1.320;2023-03-04T01:38:27;2.70;99.90
27506;DHT22;14939;43.596;1.320;2023-03-04T01:40:52;2.60;99.90
27506;DHT22;14939;43.596;1.320;2023-03-04T01:43:22;2.70;99.90
27506;DHT22;14939;43.596;1.320;2023-03-04T01:45:50;2.60;99.90
27506;DHT22;14939;43.596;1.320;2023-03-04T01:48:28;2.60;99.90
27506;DHT22;14939;43.596;1.320;2023-03-04T01:50:56;2.50;99.90
27506;DHT22;14939;43.596;1.320;2023-03-04T01:53:25;2.50;99.90
27506;DHT22;14939;43.596;1.320;2023-03-04T01:55:57;2.40;99.90
27506;DHT22;14939;43.596;1.320;2023-03-04T01:58:25;2.30;99.90
27506;DHT22;14939;43.596;1.320;2023-03-04T02:00:52;2.20;99.90
27506;DHT22;14939;43.596;1.320;2023-03-04T02:03:18;2.30;99.90
27506;DHT22;14939;43.596;1.320;2023-03-04T02:05:47;2.30;99.90
27506;DHT22;14939;43.596;1.320;2023-03-04T02:08:14;2.30;99.90
27506;DHT22;14939;43.596;1.320;2023-03-04T02:10:42;2.30;99.90
27506;DHT22;14939;43.596;1.320;2023-03-04T02:13:08;2.30;99.90
27506;DHT22;14939;43.596;1.320;2023-03-04T02:15:33;2.30;99.90
27506;DHT22;14939;43.596;1.320;2023-03-04T02:18:00;2.30;99.90
27506;DHT22;14939;43.596;1.320;2023-03-04T02:20:34;2.30;99.90
27506;DHT22;14939;43.596;1.320;2023-03-04T02:26:30;2.20;99.90
27506;DHT22;14939;43.596;1.320;2023-03-04T02:28:30;2.20;99.90
27506;DHT22;14939;43.596;1.320;2023-03-04T02:30:55;2.20;99.90
27506;DHT22;14939;43.596;1.320;2023-03-04T02:33:21;2.20;99.90
27506;DHT22;14939;43.596;1.320;2023-03-04T02:35:47;2.20;99.90
27506;DHT22;14939;43.596;1.320;2023-03-04T02:38:13;2.10;99.90
27506;DHT22;14939;43.596;1.320;2023-03-04T02:40:41;2.10;99.90
27506;DHT22;14939;43.596;1.320;2023-03-04T02:43:10;1.90;99.90
27506;DHT22;14939;43.596;1.320;2023-03-04T02:45:42;1.90;99.90
27506;DHT22;14939;43.596;1.320;2023-03-04T02:48:09;1.90;99.90
27506;DHT22;14939;43.596;1.320;2023-03-04T02:50:40;1.80;99.90
27506;DHT22;14939;43.596;1.320;2023-03-04T02:53:06;1.80;99.90
27506;DHT22;14939;43.596;1.320;2023-03-04T02:55:32;1.80;99.90
27506;DHT22;14939;43.596;1.320;2023-03-04T02:57:58;1.90;99.90
27506;DHT22;14939;43.596;1.320;2023-03-04T03:00:23;1.80;99.90
27506;DHT22;14939;43.596;1.320;2023-03-04T03:02:49;1.90;99.90
27506;DHT22;14939;43.596;1.320;2023-03-04T03:05:15;1.90;99.90
27506;DHT22;14939;43.596;1.320;2023-03-04T03:07:41;1.90;99.90
27506;DHT22;14939;43.596;1.320;2023-03-04T03:10:07;1.80;99.90
27506;DHT22;14939;43.596;1.320;2023-03-04T03:12:33;1.80;99.90
27506;DHT22;14939;43.596;1.320;2023-03-04T03:14:59;1.80;99.90
27506;DHT22;14939;43.596;1.320;2023-03-04T03:17:25;1.80;99.90
27506;DHT22;14939;43.596;1.320;2023-03-04T03:19:50;1.80;99.90
27506;DHT22;14939;43.596;1.320;2023-03-04T03:22:16;1.70;99.90
27506;DHT22;14939;43.596;1.320;2023-03-04T03:24:42;1.80;99.90
27506;DHT22;14939;43.596;1.320;2023-03-04T03:27:07;1.70;99.90
27506;DHT22;14939;43.596;1.320;2023-03-04T03:29:33;1.70;99.90
27506;DHT22;14939;43.596;1.320;2023-03-04T03:31:59;1.70;99.90
27506;DHT22;14939;43.596;1.320;2023-03-04T03:34:24;1.70;99.90
27506;DHT22;14939;43.596;1.320;2023-03-04T03:36:50;1.70;99.90
27506;DHT22;14939;43.596;1.320;2023-03-04T03:39:16;1.70;99.90
27506;DHT22;14939;43.596;1.320;2023-03-04T03:41:42;1.60;99.90
27506;DHT22;14939;43.596;1.320;2023-03-04T03:44:07;1.50;99.90
27506;DHT22;14939;43.596;1.320;2023-03-04T03:46:33;1.60;99.90
27506;DHT22;14939;43.596;1.320;2023-03-04T03:49:00;1.50;99.90
27506;DHT22;14939;43.596;1.320;2023-03-04T03:51:26;1.50;99.90
27506;DHT22;14939;43.596;1.320;2023-03-04T03:53:51;1.50;99.90
27506;DHT22;14939;43.596;1.320;2023-03-04T03:56:17;1.40;99.90
27506;DHT22;14939;43.596;1.320;2023-03-04T03:58:43;1.30;99.90
27506;DHT22;14939;43.596;1.320;2023-03-04T04:01:08;1.40;99.90
27506;DHT22;14939;43.596;1.320;2023-03-04T04:03:34;1.40;99.90
27506;DHT22;14939;43.596;1.320;2023-03-04T04:06:00;1.30;99.90
27506;DHT22;14939;43.596;1.320;2023-03-04T04:08:25;1.30;99.90
27506;DHT22;14939;43.596;1.320;2023-03-04T04:10:51;1.20;99.90
27506;DHT22;14939;43.596;1.320;2023-03-04T04:13:17;1.20;99.90
27506;DHT22;14939;43.596;1.320;2023-03-04T04:15:43;1.20;99.90
27506;DHT22;14939;43.596;1.320;2023-03-04T04:18:09;1.30;99.90
27506;DHT22;14939;43.596;1.320;2023-03-04T04:20:35;1.30;99.90
27506;DHT22;14939;43.596;1.320;2023-03-04T04:23:01;1.30;99.90
27506;DHT22;14939;43.596;1.320;2023-03-04T04:25:26;1.30;99.90
27506;DHT22;14939;43.596;1.320;2023-03-04T04:27:52;1.30;99.90
27506;DHT22;14939;43.596;1.320;2023-03-04T04:30:18;1.30;99.90
27506;DHT22;14939;43.596;1.320;2023-03-04T04:32:44;1.30;99.90
27506;DHT22;14939;43.596;1.320;2023-03-04T04:35:10;1.30;99.90
27506;DHT22;14939;43.596;1.320;2023-03-04T04:37:35;1.30;99.90
27506;DHT22;14939;43.596;1.320;2023-03-04T04:40:01;1.40;99.90
27506;DHT22;14939;43.596;1.320;2023-03-04T04:42:28;1.40;99.90
27506;DHT22;14939;43.596;1.320;2023-03-04T04:44:53;1.40;99.90
27506;DHT22;14939;43.596;1.320;2023-03-04T04:47:19;1.40;99.90
27506;DHT22;14939;43.596;1.320;2023-03-04T04:49:45;1.40;99.90
27506;DHT22;14939;43.596;1.320;2023-03-04T04:52:11;1.40;99.90
27506;DHT22;14939;43.596;1.320;2023-03-04T04:54:36;1.40;99.90
27506;DHT22;14939;43.596;1.320;2023-03-04T04:57:02;1.40;99.90
27506;DHT22;14939;43.596;1.320;2023-03-04T04:59:28;1.40;99.90
27506;DHT22;14939;43.596;1.320;2023-03-04T05:01:53;1.40;99.90
27506;DHT22;14939;43.596;1.320;2023-03-04T05:04:19;1.40;99.90
27506;DHT22;14939;43.596;1.320;2023-03-04T05:06:45;1.40;99.90
27506;DHT22;14939;43.596;1.320;2023-03-04T05:09:11;1.40;99.90
27506;DHT22;14939;43.596;1.320;2023-03-04T05:11:37;1.50;99.90
27506;DHT22;14939;43.596;1.320;2023-03-04T05:14:02;1.50;99.90
27506;DHT22;14939;43.596;1.320;2023-03-04T05:16:28;1.60;99.90
27506;DHT22;14939;43.596;1.320;2023-03-04T05:18:54;1.60;99.90
27506;DHT22;14939;43.596;1.320;2023-03-04T05:21:20;1.70;99.90
27506;DHT22;14939;43.596;1.320;2023-03-04T05:23:45;1.70;99.90
27506;DHT22;14939;43.596;1.320;2023-03-04T05:26:16;1.80;99.90
27506;DHT22;14939;43.596;1.320;2023-03-04T05:28:42;1.80;99.90
27506;DHT22;14939;43.596;1.320;2023-03-04T05:31:08;1.90;99.90
27506;DHT22;14939;43.596;1.320;2023-03-04T05:33:34;1.90;99.90
27506;DHT22;14939;43.596;1.320;2023-03-04T05:36:01;1.90;99.90
27506;DHT22;14939;43.596;1.320;2023-03-04T05:38:27;1.90;99.90
27506;DHT22;14939;43.596;1.320;2023-03-04T05:41:04;1.90;99.90
27506;DHT22;14939;43.596;1.320;2023-03-04T05:43:31;2.00;99.90
27506;DHT22;14939;43.596;1.320;2023-03-04T05:45:58;2.00;99.90
27506;DHT22;14939;43.596;1.320;2023-03-04T05:48:24;2.00;99.90
27506;DHT22;14939;43.596;1.320;2023-03-04T05:50:54;2.10;99.90
27506;DHT22;14939;43.596;1.320;2023-03-04T05:53:20;2.10;99.90
27506;DHT22;14939;43.596;1.320;2023-03-04T05:55:46;2.10;99.90
27506;DHT22;14939;43.596;1.320;2023-03-04T05:58:12;2.10;99.90
27506;DHT22;14939;43.596;1.320;2023-03-04T06:00:38;2.10;99.90
27506;DHT22;14939;43.596;1.320;2023-03-04T06:03:04;2.10;99.90
27506;DHT22;14939;43.596;1.320;2023-03-04T06:05:29;2.20;99.90
27506;DHT22;14939;43.596;1.320;2023-03-04T06:07:55;2.30;99.90
27506;DHT22;14939;43.596;1.320;2023-03-04T06:10:21;2.40;99.90
27506;DHT22;14939;43.596;1.320;2023-03-04T06:12:46;2.50;99.90
27506;DHT22;14939;43.596;1.320;2023-03-04T06:15:12;2.50;99.90
27506;DHT22;14939;43.596;1.320;2023-03-04T06:17:39;2.50;99.90
27506;DHT22;14939;43.596;1.320;2023-03-04T06:20:06;2.60;99.90
27506;DHT22;14939;43.596;1.320;2023-03-04T06:22:32;2.60;99.90
27506;DHT22;14939;43.596;1.320;2023-03-04T06:24:59;2.70;99.90
27506;DHT22;14939;43.596;1.320;2023-03-04T06:27:25;2.70;99.90
27506;DHT22;14939;43.596;1.320;2023-03-04T06:29:51;2.70;99.90
27506;DHT22;14939;43.596;1.320;2023-03-04T06:32:16;2.70;99.90
27506;DHT22;14939;43.596;1.320;2023-03-04T06:34:42;2.80;99.90
27506;DHT22;14939;43.596;1.320;2023-03-04T06:37:08;2.80;99.90
27506;DHT22;14939;43.596;1.320;2023-03-04T06:39:33;2.90;99.90
27506;DHT22;14939;43.596;1.320;2023-03-04T06:41:59;2.90;99.90
27506;DHT22;14939;43.596;1.320;2023-03-04T06:44:25;3.00;99.90
27506;DHT22;14939;43.596;1.320;2023-03-04T06:46:50;3.10;99.90
27506;DHT22;14939;43.596;1.320;2023-03-04T06:49:16;3.20;99.90
27506;DHT22;14939;43.596;1.320;2023-03-04T06:51:42;3.20;99.90
27506;DHT22;14939;43.596;1.320;2023-03-04T06:54:08;3.20;99.90
27506;DHT22;14939;43.596;1.320;2023-03-04T06:56:35;3.30;99.90
27506;DHT22;14939;43.596;1.320;2023-03-04T06:59:00;3.40;99.90
27506;DHT22;14939;43.596;1.320;2023-03-04T07:01:27;3.40;99.90
27506;DHT22;14939;43.596;1.320;2023-03-04T07:03:54;3.40;99.90
27506;DHT22;14939;43.596;1.320;2023-03-04T07:06:23;3.50;99.90
27506;DHT22;14939;43.596;1.320;2023-03-04T07:08:50;3.50;99.90
27506;DHT22;14939;43.596;1.320;2023-03-04T07:11:17;3.60;99.90
27506;DHT22;14939;43.596;1.320;2023-03-04T07:13:43;3.60;99.90
27506;DHT22;14939;43.596;1.320;2023-03-04T07:16:11;3.70;99.90
27506;DHT22;14939;43.596;1.320;2023-03-04T07:18:37;3.70;99.90
27506;DHT22;14939;43.596;1.320;2023-03-04T07:21:05;3.70;99.90
27506;DHT22;14939;43.596;1.320;2023-03-04T07:23:31;3.70;99.90
27506;DHT22;14939;43.596;1.320;2023-03-04T07:25:57;3.70;99.90
27506;DHT22;14939;43.596;1.320;2023-03-04T07:28:23;3.70;99.90
27506;DHT22;14939;43.596;1.320;2023-03-04T07:30:48;3.70;99.90
27506;DHT22;14939;43.596;1.320;2023-03-04T07:33:14;3.70;99.90
27506;DHT22;14939;43.596;1.320;2023-03-04T07:35:40;3.80;99.90
27506;DHT22;14939;43.596;1.320;2023-03-04T07:38:06;3.90;99.90
27506;DHT22;14939;43.596;1.320;2023-03-04T07:40:32;3.90;99.90
27506;DHT22;14939;43.596;1.320;2023-03-04T07:42:58;4.00;99.90
27506;DHT22;14939;43.596;1.320;2023-03-04T07:45:24;4.10;99.90
27506;DHT22;14939;43.596;1.320;2023-03-04T07:47:50;4.10;99.90
27506;DHT22;14939;43.596;1.320;2023-03-04T07:50:17;4.20;99.90
27506;DHT22;14939;43.596;1.320;2023-03-04T07:52:45;4.20;99.90
27506;DHT22;14939;43.596;1.320;2023-03-04T07:55:12;4.20;99.90
27506;DHT22;14939;43.596;1.320;2023-03-04T07:57:39;4.30;99.90
27506;DHT22;14939;43.596;1.320;2023-03-04T08:00:06;4.30;99.90
27506;DHT22;14939;43.596;1.320;2023-03-04T08:02:31;4.30;99.90
27506;DHT22;14939;43.596;1.320;2023-03-04T08:04:57;4.40;99.90
27506;DHT22;14939;43.596;1.320;2023-03-04T08:07:23;4.50;99.90
27506;DHT22;14939;43.596;1.320;2023-03-04T08:09:48;4.60;99.90
27506;DHT22;14939;43.596;1.320;2023-03-04T08:12:15;4.70;99.90
27506;DHT22;14939;43.596;1.320;2023-03-04T08:14:41;4.80;99.90
27506;DHT22;14939;43.596;1.320;2023-03-04T08:17:07;4.90;99.90
27506;DHT22;14939;43.596;1.320;2023-03-04T08:19:34;5.00;99.90
27506;DHT22;14939;43.596;1.320;2023-03-04T08:22:00;5.10;99.90
27506;DHT22;14939;43.596;1.320;2023-03-04T08:24:26;5.30;99.90
27506;DHT22;14939;43.596;1.320;2023-03-04T08:26:52;5.40;99.90
27506;DHT22;14939;43.596;1.320;2023-03-04T08:29:20;5.50;99.90
27506;DHT22;14939;43.596;1.320;2023-03-04T08:31:47;5.60;99.90
27506;DHT22;14939;43.596;1.320;2023-03-04T08:34:13;5.70;99.90
27506;DHT22;14939;43.596;1.320;2023-03-04T08:36:40;5.90;99.90
27506;DHT22;14939;43.596;1.320;2023-03-04T08:39:11;5.90;99.90
27506;DHT22;14939;43.596;1.320;2023-03-04T08:41:37;6.10;99.90
27506;DHT22;14939;43.596;1.320;2023-03-04T08:44:03;6.10;99.60
27506;DHT22;14939;43.596;1.320;2023-03-04T08:46:29;6.20;98.50
27506;DHT22;14939;43.596;1.320;2023-03-04T08:48:55;6.30;98.00
27506;DHT22;14939;43.596;1.320;2023-03-04T08:51:21;6.40;97.50
27506;DHT22;14939;43.596;1.320;2023-03-04T08:53:47;6.40;96.30
27506;DHT22;14939;43.596;1.320;2023-03-04T08:56:13;6.50;95.80
27506;DHT22;14939;43.596;1.320;2023-03-04T08:58:39;6.60;95.30
27506;DHT22;14939;43.596;1.320;2023-03-04T09:01:09;6.70;95.20
27506;DHT22;14939;43.596;1.320;2023-03-04T09:03:36;6.80;95.20
27506;DHT22;14939;43.596;1.320;2023-03-04T09:06:03;6.80;94.30
27506;DHT22;14939;43.596;1.320;2023-03-04T09:08:30;6.90;94.10
27506;DHT22;14939;43.596;1.320;2023-03-04T09:10:56;7.00;93.70
27506;DHT22;14939;43.596;1.320;2023-03-04T09:13:22;7.10;93.40
27506;DHT22;14939;43.596;1.320;2023-03-04T09:15:50;7.20;93.30
27506;DHT22;14939;43.596;1.320;2023-03-04T09:18:17;7.20;92.50
27506;DHT22;14939;43.596;1.320;2023-03-04T09:20:44;7.20;92.30
27506;DHT22;14939;43.596;1.320;2023-03-04T09:23:10;7.30;93.10
27506;DHT22;14939;43.596;1.320;2023-03-04T09:25:37;7.40;92.20
27506;DHT22;14939;43.596;1.320;2023-03-04T09:28:03;7.50;91.70
27506;DHT22;14939;43.596;1.320;2023-03-04T09:30:29;7.50;92.30
27506;DHT22;14939;43.596;1.320;2023-03-04T09:32:55;7.50;91.80
27506;DHT22;14939;43.596;1.320;2023-03-04T09:35:22;7.50;91.80
27506;DHT22;14939;43.596;1.320;2023-03-04T09:37:48;7.50;91.90
27506;DHT22;14939;43.596;1.320;2023-03-04T09:40:27;7.70;91.60
27506;DHT22;14939;43.596;1.320;2023-03-04T09:42:57;7.70;91.20
27506;DHT22;14939;43.596;1.320;2023-03-04T09:45:35;7.90;90.20
27506;DHT22;14939;43.596;1.320;2023-03-04T09:48:02;8.00;90.20
27506;DHT22;14939;43.596;1.320;2023-03-04T09:50:29;8.20;89.30
27506;DHT22;14939;43.596;1.320;2023-03-04T09:53:17;8.20;87.00
27506;DHT22;14939;43.596;1.320;2023-03-04T09:55:49;8.40;87.50
27506;DHT22;14939;43.596;1.320;2023-03-04T09:58:38;8.40;86.00
27506;DHT22;14939;43.596;1.320;2023-03-04T10:04:07;8.70;85.50
27506;DHT22;14939;43.596;1.320;2023-03-04T10:06:37;8.60;83.90
27506;DHT22;14939;43.596;1.320;2023-03-04T10:09:15;8.60;84.70
27506;DHT22;14939;43.596;1.320;2023-03-04T10:11:47;8.70;83.60
27506;DHT22;14939;43.596;1.320;2023-03-04T10:16:52;8.60;82.70
27506;DHT22;14939;43.596;1.320;2023-03-04T10:19:30;8.50;82.30
27506;DHT22;14939;43.596;1.320;2023-03-04T10:21:59;8.50;82.30
27506;DHT22;14939;43.596;1.320;2023-03-04T10:24:28;8.40;84.30
27506;DHT22;14939;43.596;1.320;2023-03-04T10:27:04;8.40;83.60
27506;DHT22;14939;43.596;1.320;2023-03-04T10:29:32;8.20;82.90
27506;DHT22;14939;43.596;1.320;2023-03-04T10:31:58;8.10;83.00
27506;DHT22;14939;43.596;1.320;2023-03-04T10:34:24;7.90;83.20
27506;DHT22;14939;43.596;1.320;2023-03-04T10:39:24;8.10;84.60
27506;DHT22;14939;43.596;1.320;2023-03-04T10:44:30;8.20;83.00
27506;DHT22;14939;43.596;1.320;2023-03-04T10:46:57;8.30;81.90
27506;DHT22;14939;43.596;1.320;2023-03-04T10:49:24;8.30;82.50
27506;DHT22;14939;43.596;1.320;2023-03-04T10:52:14;8.30;80.90
27506;DHT22;14939;43.596;1.320;2023-03-04T10:54:47;8.30;80.30
27506;DHT22;14939;43.596;1.320;2023-03-04T10:57:18;8.40;80.00
27506;DHT22;14939;43.596;1.320;2023-03-04T10:59:58;8.50;78.10
27506;DHT22;14939;43.596;1.320;2023-03-04T11:02:35;8.50;79.10
27506;DHT22;14939;43.596;1.320;2023-03-04T11:10:20;8.80;77.50
27506;DHT22;14939;43.596;1.320;2023-03-04T11:12:49;8.80;77.30
27506;DHT22;14939;43.596;1.320;2023-03-04T11:15:22;8.70;78.80
27506;DHT22;14939;43.596;1.320;2023-03-04T11:17:58;8.90;78.60
27506;DHT22;14939;43.596;1.320;2023-03-04T11:20:32;9.20;79.20
27506;DHT22;14939;43.596;1.320;2023-03-04T11:23:05;9.20;76.10
27506;DHT22;14939;43.596;1.320;2023-03-04T11:25:37;9.30;75.50
27506;DHT22;14939;43.596;1.320;2023-03-04T11:28:18;9.30;76.30
27506;DHT22;14939;43.596;1.320;2023-03-04T11:31:01;9.20;75.90
27506;DHT22;14939;43.596;1.320;2023-03-04T11:36:32;9.60;75.30
27506;DHT22;14939;43.596;1.320;2023-03-04T11:38:59;9.90;74.90
27506;DHT22;14939;43.596;1.320;2023-03-04T11:41:30;9.90;74.40
27506;DHT22;14939;43.596;1.320;2023-03-04T11:43:58;9.50;74.50
27506;DHT22;14939;43.596;1.320;2023-03-04T11:46:35;9.30;75.50
27506;DHT22;14939;43.596;1.320;2023-03-04T11:58:13;10.20;75.90
27506;DHT22;14939;43.596;1.320;2023-03-04T12:01:03;10.30;73.70
27506;DHT22;14939;43.596;1.320;2023-03-04T12:41:15;10.50;69.80
27506;DHT22;14939;43.596;1.320;2023-03-04T12:44:13;10.30;69.40
27506;DHT22;14939;43.596;1.320;2023-03-04T12:49:39;10.30;68.80
27506;DHT22;14939;43.596;1.320;2023-03-04T12:54:56;11.30;67.20
27506;DHT22;14939;43.596;1.320;2023-03-04T12:57:24;11.60;66.50
27506;DHT22;14939;43.596;1.320;2023-03-04T12:59:59;11.50;67.60
27506;DHT22;14939;43.596;1.320;2023-03-04T13:07:46;11.00;66.30
27506;DHT22;14939;43.596;1.320;2023-03-04T13:10:17;11.20;67.20
27506;DHT22;14939;43.596;1.320;2023-03-04T13:25:41;11.20;66.30
27506;DHT22;14939;43.596;1.320;2023-03-04T13:38:23;11.10;63.20
27506;DHT22;14939;43.596;1.320;2023-03-04T13:43:41;11.30;61.90
27506;DHT22;14939;43.596;1.320;2023-03-04T13:51:39;11.10;62.60
27506;DHT22;14939;43.596;1.320;2023-03-04T13:54:32;11.20;62.80
27506;DHT22;14939;43.596;1.320;2023-03-04T13:57:15;11.20;62.90
27506;DHT22;14939;43.596;1.320;2023-03-04T14:02:17;11.20;64.70
27506;DHT22;14939;43.596;1.320;2023-03-04T14:07:26;11.20;64.80
27506;DHT22;14939;43.596;1.320;2023-03-04T14:12:27;11.30;63.50
27506;DHT22;14939;43.596;1.320;2023-03-04T14:14:59;11.40;64.10
27506;DHT22;14939;43.596;1.320;2023-03-04T14:17:28;11.40;63.50
27506;DHT22;14939;43.596;1.320;2023-03-04T14:19:55;11.30;64.40
27506;DHT22;14939;43.596;1.320;2023-03-04T14:22:28;11.20;63.20
27506;DHT22;14939;43.596;1.320;2023-03-04T14:25:25;11.10;62.90
27506;DHT22;14939;43.596;1.320;2023-03-04T14:28:15;11.30;63.00
27506;DHT22;14939;43.596;1.320;2023-03-04T14:30:42;11.40;62.00
27506;DHT22;14939;43.596;1.320;2023-03-04T14:33:18;11.40;62.20
27506;DHT22;14939;43.596;1.320;2023-03-04T14:35:47;11.30;63.80
27506;DHT22;14939;43.596;1.320;2023-03-04T14:38:29;11.20;64.50
27506;DHT22;14939;43.596;1.320;2023-03-04T14:40:57;11.20;64.10
27506;DHT22;14939;43.596;1.320;2023-03-04T14:43:27;11.30;65.40
27506;DHT22;14939;43.596;1.320;2023-03-04T14:45:56;11.30;65.20
27506;DHT22;14939;43.596;1.320;2023-03-04T14:48:30;11.30;64.50
27506;DHT22;14939;43.596;1.320;2023-03-04T14:50:58;11.20;65.10
27506;DHT22;14939;43.596;1.320;2023-03-04T14:53:26;11.20;64.70
27506;DHT22;14939;43.596;1.320;2023-03-04T14:55:58;11.10;63.90
27506;DHT22;14939;43.596;1.320;2023-03-04T14:58:31;11.30;64.00
27506;DHT22;14939;43.596;1.320;2023-03-04T15:01:26;11.50;62.30
27506;DHT22;14939;43.596;1.320;2023-03-04T15:04:08;11.60;61.30
27506;DHT22;14939;43.596;1.320;2023-03-04T15:06:52;12.00;61.20
27506;DHT22;14939;43.596;1.320;2023-03-04T15:09:23;11.90;61.60
27506;DHT22;14939;43.596;1.320;2023-03-04T15:12:05;11.80;62.20
27506;DHT22;14939;43.596;1.320;2023-03-04T15:14:45;11.80;62.50
27506;DHT22;14939;43.596;1.320;2023-03-04T15:17:37;11.60;62.20
27506;DHT22;14939;43.596;1.320;2023-03-04T15:22:33;11.30;64.00
27506;DHT22;14939;43.596;1.320;2023-03-04T15:24:59;11.20;63.90
27506;DHT22;14939;43.596;1.320;2023-03-04T15:27:27;11.30;64.30
27506;DHT22;14939;43.596;1.320;2023-03-04T15:29:54;11.20;64.40
27506;DHT22;14939;43.596;1.320;2023-03-04T15:32:27;11.20;64.50
27506;DHT22;14939;43.596;1.320;2023-03-04T15:34:53;11.10;64.70
27506;DHT22;14939;43.596;1.320;2023-03-04T15:37:27;11.10;64.50
27506;DHT22;14939;43.596;1.320;2023-03-04T15:39:55;11.10;65.00
27506;DHT22;14939;43.596;1.320;2023-03-04T15:42:21;11.20;64.20
27506;DHT22;14939;43.596;1.320;2023-03-04T15:44:47;11.10;64.60
27506;DHT22;14939;43.596;1.320;2023-03-04T15:47:13;11.10;64.10
27506;DHT22;14939;43.596;1.320;2023-03-04T15:49:40;11.10;64.20
27506;DHT22;14939;43.596;1.320;2023-03-04T15:52:11;11.00;64.70
27506;DHT22;14939;43.596;1.320;2023-03-04T15:54:39;10.90;65.00
27506;DHT22;14939;43.596;1.320;2023-03-04T15:57:11;10.90;64.80
27506;DHT22;14939;43.596;1.320;2023-03-04T15:59:40;10.90;65.20
27506;DHT22;14939;43.596;1.320;2023-03-04T16:02:14;10.90;65.30
27506;DHT22;14939;43.596;1.320;2023-03-04T16:04:43;10.90;65.40
27506;DHT22;14939;43.596;1.320;2023-03-04T16:07:18;10.90;66.60
27506;DHT22;14939;43.596;1.320;2023-03-04T16:09:45;11.00;66.10
27506;DHT22;14939;43.596;1.320;2023-03-04T16:12:11;10.90;65.40
27506;DHT22;14939;43.596;1.320;2023-03-04T16:14:38;10.80;65.90
27506;DHT22;14939;43.596;1.320;2023-03-04T16:17:03;10.70;66.00
27506;DHT22;14939;43.596;1.320;2023-03-04T16:19:29;10.60;67.00
27506;DHT22;14939;43.596;1.320;2023-03-04T16:21:55;10.60;66.40
27506;DHT22;14939;43.596;1.320;2023-03-04T16:24:21;10.50;67.70
27506;DHT22;14939;43.596;1.320;2023-03-04T16:26:47;10.50;66.50
27506;DHT22;14939;43.596;1.320;2023-03-04T16:29:14;10.40;67.20
27506;DHT22;14939;43.596;1.320;2023-03-04T16:31:40;10.40;66.70
27506;DHT22;14939;43.596;1.320;2023-03-04T16:34:06;10.30;67.20
27506;DHT22;14939;43.596;1.320;2023-03-04T16:36:33;10.40;68.30
27506;DHT22;14939;43.596;1.320;2023-03-04T16:39:02;10.30;67.70
27506;DHT22;14939;43.596;1.320;2023-03-04T16:41:29;10.40;68.40
27506;DHT22;14939;43.596;1.320;2023-03-04T16:43:58;10.30;67.50
27506;DHT22;14939;43.596;1.320;2023-03-04T16:46:24;10.30;68.20
27506;DHT22;14939;43.596;1.320;2023-03-04T16:48:50;10.20;67.40
27506;DHT22;14939;43.596;1.320;2023-03-04T16:51:19;10.20;68.00
27506;DHT22;14939;43.596;1.320;2023-03-04T16:53:47;10.20;68.10
27506;DHT22;14939;43.596;1.320;2023-03-04T16:56:15;10.20;68.80
27506;DHT22;14939;43.596;1.320;2023-03-04T16:58:42;10.10;68.60
27506;DHT22;14939;43.596;1.320;2023-03-04T17:01:24;10.10;69.40
27506;DHT22;14939;43.596;1.320;2023-03-04T17:03:50;10.10;68.70
27506;DHT22;14939;43.596;1.320;2023-03-04T17:06:17;10.10;69.10
27506;DHT22;14939;43.596;1.320;2023-03-04T17:08:43;10.10;68.80
27506;DHT22;14939;43.596;1.320;2023-03-04T17:11:18;10.00;69.60
27506;DHT22;14939;43.596;1.320;2023-03-04T17:13:44;10.00;69.60
27506;DHT22;14939;43.596;1.320;2023-03-04T17:16:11;10.00;69.70
27506;DHT22;14939;43.596;1.320;2023-03-04T17:18:37;9.90;70.40
27506;DHT22;14939;43.596;1.320;2023-03-04T17:21:15;9.90;70.30
27506;DHT22;14939;43.596;1.320;2023-03-04T17:23:41;9.90;70.00
27506;DHT22;14939;43.596;1.320;2023-03-04T17:26:06;9.90;71.20
27506;DHT22;14939;43.596;1.320;2023-03-04T17:28:34;9.80;70.90
27506;DHT22;14939;43.596;1.320;2023-03-04T17:30:59;9.80;70.60
27506;DHT22;14939;43.596;1.320;2023-03-04T17:33:26;9.70;70.90
27506;DHT22;14939;43.596;1.320;2023-03-04T17:35:51;9.70;71.40
27506;DHT22;14939;43.596;1.320;2023-03-04T17:38:17;9.60;71.60
27506;DHT22;14939;43.596;1.320;2023-03-04T17:40:43;9.50;71.80
27506;DHT22;14939;43.596;1.320;2023-03-04T17:43:09;9.40;72.40
27506;DHT22;14939;43.596;1.320;2023-03-04T17:45:38;9.30;72.90
27506;DHT22;14939;43.596;1.320;2023-03-04T17:48:04;9.20;73.20
27506;DHT22;14939;43.596;1.320;2023-03-04T17:50:30;9.10;73.90